createdAt,value
2022-08-10T00:02:23.663Z,98607.88
2022-08-10T00:04:56.652Z,98606.31
2022-08-10T00:07:29.985Z,98602.20
2022-08-10T00:10:00.795Z,98599.48
2022-08-10T00:12:53.909Z,98603.44
2022-08-10T00:15:44.127Z,98606.11
2022-08-10T00:18:31.575Z,98601.69
2022-08-10T00:21:11.050Z,98598.16
2022-08-10T00:23:43.885Z,98600.31
2022-08-10T00:26:16.725Z,98599.56
2022-08-10T00:28:51.480Z,98600.61
2022-08-10T00:31:24.296Z,98598.31
2022-08-10T00:33:57.125Z,98602.16
2022-08-10T00:36:31.901Z,98597.64
2022-08-10T00:39:08.711Z,98595.86
2022-08-10T00:41:44.868Z,98596.55
2022-08-10T00:44:17.916Z,98600.48
2022-08-10T00:46:51.165Z,98601.98
2022-08-10T00:49:24.076Z,98598.08
2022-08-10T00:51:57.235Z,98602.95
2022-08-10T00:54:30.394Z,98603.46
2022-08-10T00:57:16.416Z,98599.95
2022-08-10T00:59:59.213Z,98600.61
2022-08-10T01:02:35.037Z,98594.92
2022-08-10T01:05:10.945Z,98596.60
2022-08-10T01:08:12.245Z,98594.70
2022-08-10T01:10:51.965Z,98594.96
2022-08-10T01:13:31.825Z,98598.06
2022-08-10T01:16:14.077Z,98596.23
2022-08-10T01:18:55.766Z,98594.63
2022-08-10T01:22:00.137Z,98593.05
2022-08-10T01:24:44.226Z,98596.16
2022-08-10T01:27:29.092Z,98597.91
2022-08-10T01:30:05.649Z,98595.17
2022-08-10T01:32:49.564Z,98598.30
2022-08-10T01:35:26.344Z,98598.86
2022-08-10T01:38:06.006Z,98604.19
2022-08-10T01:40:43.805Z,98605.61
2022-08-10T01:43:19.616Z,98607.11
2022-08-10T01:45:57.532Z,98604.15
2022-08-10T01:48:32.964Z,98603.75
2022-08-10T01:51:15.405Z,98601.80
2022-08-10T01:53:52.506Z,98595.84
2022-08-10T01:56:27.264Z,98595.28
2022-08-10T01:59:04.935Z,98593.97
2022-08-10T02:01:42.679Z,98595.03
2022-08-10T02:04:17.905Z,98593.43
2022-08-10T02:06:53.719Z,98599.66
2022-08-10T02:09:29.685Z,98600.31
2022-08-10T02:12:08.648Z,98602.73
2022-08-10T02:14:45.855Z,98604.66
2022-08-10T02:17:57.613Z,98600.02
2022-08-10T02:20:22.972Z,98603.89
2022-08-10T02:22:58.555Z,98604.20
2022-08-10T02:25:42.167Z,98600.98
2022-08-10T02:28:27.363Z,98602.83
2022-08-10T02:31:06.973Z,98601.08
2022-08-10T02:33:57.451Z,98605.96
2022-08-10T02:36:34.763Z,98603.25
2022-08-10T02:39:09.297Z,98606.08
2022-08-10T02:45:13.340Z,98607.55
2022-08-10T02:45:26.598Z,98603.63
2022-08-10T02:47:46.620Z,98609.37
2022-08-10T02:50:30.244Z,98615.00
2022-08-10T02:53:07.034Z,98610.30
2022-08-10T02:55:46.904Z,98611.13
2022-08-10T02:58:25.725Z,98613.77
2022-08-10T03:01:02.195Z,98613.98
2022-08-10T03:03:39.365Z,98616.63
2022-08-10T03:06:16.184Z,98614.52
2022-08-10T03:08:50.924Z,98616.33
2022-08-10T03:12:37.933Z,98616.16
2022-08-10T03:14:22.175Z,98618.42
2022-08-10T03:16:58.415Z,98618.30
2022-08-10T03:20:33.335Z,98620.44
2022-08-10T03:22:28.265Z,98622.38
2022-08-10T03:25:02.958Z,98620.84
2022-08-10T03:27:35.905Z,98620.48
2022-08-10T03:30:28.444Z,98619.37
2022-08-10T03:33:04.646Z,98621.29
2022-08-10T03:35:37.857Z,98623.56
2022-08-10T03:38:10.715Z,98625.05
2022-08-10T03:40:47.465Z,98631.13
2022-08-10T03:43:23.205Z,98631.96
2022-08-10T03:46:00.015Z,98631.10
2022-08-10T03:48:48.776Z,98630.59
2022-08-10T03:51:24.664Z,98638.20
2022-08-10T03:54:04.247Z,98642.15
2022-08-10T03:56:44.006Z,98640.45
2022-08-10T03:59:18.664Z,98639.77
2022-08-10T04:02:45.682Z,98639.31
2022-08-10T04:04:46.814Z,98642.76
2022-08-10T04:07:20.277Z,98642.16
2022-08-10T04:09:56.428Z,98638.23
2022-08-10T04:12:31.996Z,98637.11
2022-08-10T04:15:04.777Z,98638.90
2022-08-10T04:18:02.723Z,98638.42
2022-08-10T04:20:38.685Z,98639.55
2022-08-10T04:23:15.914Z,98637.89
2022-08-10T04:25:49.525Z,98640.23
2022-08-10T04:28:20.445Z,98637.64
2022-08-10T04:30:55.774Z,98638.35
2022-08-10T04:33:31.164Z,98638.22
2022-08-10T04:36:05.415Z,98639.48
2022-08-10T04:38:39.655Z,98643.06
2022-08-10T04:41:13.774Z,98641.06
2022-08-10T04:43:48.447Z,98638.73
2022-08-10T04:46:42.567Z,98644.02
2022-08-10T04:49:55.116Z,98643.56
2022-08-10T04:52:07.826Z,98645.88
2022-08-10T04:54:40.695Z,98644.00
2022-08-10T04:57:14.645Z,98647.90
2022-08-10T04:59:48.935Z,98649.63
2022-08-10T05:02:31.172Z,98648.65
2022-08-10T05:05:05.234Z,98650.91
2022-08-10T05:07:37.493Z,98653.11
2022-08-10T05:10:27.324Z,98655.02
2022-08-10T05:13:00.085Z,98656.40
2022-08-10T05:15:32.997Z,98654.61
2022-08-10T05:18:09.807Z,98652.18
2022-08-10T05:20:47.340Z,98654.08
2022-08-10T05:23:24.095Z,98653.02
2022-08-10T05:25:57.356Z,98654.14
2022-08-10T05:28:30.257Z,98649.98
2022-08-10T05:31:07.399Z,98651.27
2022-08-10T05:33:40.734Z,98648.53
2022-08-10T05:36:12.100Z,98652.07
2022-08-10T05:38:45.096Z,98654.20
2022-08-10T05:41:18.935Z,98653.80
2022-08-10T05:43:52.903Z,98654.41
2022-08-10T05:46:33.864Z,98650.60
2022-08-10T05:49:07.465Z,98654.64
2022-08-10T05:51:40.665Z,98653.36
2022-08-10T05:54:16.650Z,98652.85
2022-08-10T05:56:53.185Z,98654.41
2022-08-10T06:00:31.133Z,98653.95
2022-08-10T06:02:35.341Z,98655.52
2022-08-10T06:05:14.110Z,98654.66
2022-08-10T06:07:54.275Z,98656.63
2022-08-10T06:10:32.241Z,98656.11
2022-08-10T06:13:30.477Z,98656.91
2022-08-10T06:16:13.725Z,98658.42
2022-08-10T06:18:47.574Z,98659.91
2022-08-10T06:21:21.148Z,98664.85
2022-08-10T06:23:55.295Z,98666.94
2022-08-10T06:26:28.124Z,98666.08
2022-08-10T06:29:07.914Z,98667.63
2022-08-10T06:31:47.487Z,98668.33
2022-08-10T06:34:28.007Z,98672.77
2022-08-10T06:37:03.087Z,98672.55
2022-08-10T06:39:37.171Z,98670.57
2022-08-10T06:42:18.760Z,98670.69
2022-08-10T06:45:02.496Z,98671.90
2022-08-10T06:48:00.923Z,98668.10
2022-08-10T06:50:56.109Z,98665.41
2022-08-10T06:53:53.980Z,98664.31
2022-08-10T06:56:37.565Z,98664.84
2022-08-10T06:59:21.725Z,98664.11
2022-08-10T07:02:00.576Z,98662.23
2022-08-10T07:04:35.814Z,98659.38
2022-08-10T07:07:11.680Z,98657.23
2022-08-10T07:09:45.939Z,98660.71
2022-08-10T07:12:21.390Z,98660.83
2022-08-10T07:14:56.793Z,98659.11
2022-08-10T07:17:38.681Z,98660.88
2022-08-10T07:20:21.442Z,98662.32
2022-08-10T07:23:50.630Z,98660.52
2022-08-10T07:25:51.457Z,98665.30
2022-08-10T07:28:25.529Z,98668.75
2022-08-10T07:30:58.524Z,98672.48
2022-08-10T07:33:30.306Z,98668.08
2022-08-10T07:36:03.134Z,98663.75
2022-08-10T07:38:38.715Z,98666.82
2022-08-10T07:41:12.072Z,98670.61
2022-08-10T07:43:48.697Z,98668.42
2022-08-10T07:46:24.794Z,98665.44
2022-08-10T07:49:18.943Z,98664.11
2022-08-10T07:51:56.595Z,98665.86
2022-08-10T07:54:32.645Z,98671.83
2022-08-10T07:57:09.036Z,98668.51
2022-08-10T07:59:46.587Z,98675.69
2022-08-10T08:02:26.634Z,98670.56
2022-08-10T08:05:03.896Z,98674.59
2022-08-10T08:07:37.635Z,98672.13
2022-08-10T08:10:13.545Z,98675.23
2022-08-10T08:12:47.832Z,98667.04
2022-08-10T08:16:20.671Z,98670.56
2022-08-10T08:18:23.004Z,98669.05
2022-08-10T08:20:59.277Z,98666.09
2022-08-10T08:24:04.781Z,98668.17
2022-08-10T08:26:30.315Z,98662.85
2022-08-10T08:29:05.099Z,98664.30
2022-08-10T08:32:01.115Z,98656.56
2022-08-10T08:34:34.127Z,98653.27
2022-08-10T08:37:09.341Z,98651.67
2022-08-10T08:39:44.178Z,98649.20
2022-08-10T08:42:55.470Z,98645.35
2022-08-10T08:46:00.430Z,98647.34
2022-08-10T08:48:39.615Z,98643.02
2022-08-10T08:52:07.847Z,98644.73
2022-08-10T08:54:35.935Z,98637.91
2022-08-10T08:57:23.020Z,98639.51
2022-08-10T09:00:21.538Z,98636.95
2022-08-10T09:03:18.767Z,98638.83
2022-08-10T09:06:02.677Z,98643.30
2022-08-10T09:09:14.912Z,98645.45
2022-08-10T09:12:03.127Z,98650.16
2022-08-10T09:14:50.014Z,98650.34
2022-08-10T09:17:33.381Z,98652.88
2022-08-10T09:20:15.035Z,98650.52
2022-08-10T09:22:59.764Z,98650.01
2022-08-10T09:25:37.085Z,98645.70
2022-08-10T09:28:13.505Z,98636.86
2022-08-10T09:31:19.142Z,98636.09
2022-08-10T09:36:20.911Z,98635.67
2022-08-10T09:36:58.045Z,98633.43
2022-08-10T09:40:12.186Z,98630.39
2022-08-10T09:43:02.046Z,98631.34
2022-08-10T09:45:49.299Z,98629.69
2022-08-10T09:48:32.606Z,98628.54
2022-08-10T09:51:43.769Z,98625.17
2022-08-10T09:54:29.121Z,98622.60
2022-08-10T09:57:43.334Z,98618.64
2022-08-10T10:00:16.955Z,98612.59
2022-08-10T10:03:11.285Z,98608.64
2022-08-10T10:05:54.230Z,98607.98
2022-08-10T10:08:38.329Z,98608.34
2022-08-10T10:11:21.724Z,98602.48
2022-08-10T10:14:12.222Z,98599.98
2022-08-10T10:17:01.502Z,98596.55
2022-08-10T10:20:01.094Z,98596.90
2022-08-10T10:22:54.482Z,98593.38
2022-08-10T10:25:49.719Z,98596.69
2022-08-10T10:29:11.507Z,98600.08
2022-08-10T10:31:33.967Z,98591.82
2022-08-10T10:34:15.856Z,98591.75
2022-08-10T10:36:52.516Z,98589.72
2022-08-10T10:39:28.029Z,98584.60
2022-08-10T10:42:35.013Z,98587.50
2022-08-10T10:45:18.134Z,98582.44
2022-08-10T10:48:10.154Z,98580.23
2022-08-10T10:51:05.831Z,98576.66
2022-08-10T10:53:47.630Z,98577.23
2022-08-10T10:56:28.756Z,98582.02
2022-08-10T10:59:54.143Z,98580.50
2022-08-10T11:02:32.034Z,98580.05
2022-08-10T11:05:31.419Z,98577.91
2022-08-10T11:08:18.615Z,98573.70
2022-08-10T11:11:21.677Z,98571.81
2022-08-10T11:14:29.101Z,98564.80
2022-08-10T11:17:09.724Z,98570.67
2022-08-10T11:20:04.145Z,98566.52
2022-08-10T11:22:44.416Z,98557.37
2022-08-10T11:25:23.984Z,98561.81
2022-08-10T11:28:02.674Z,98559.97
2022-08-10T11:30:46.597Z,98557.34
2022-08-10T11:33:32.399Z,98557.02
2022-08-10T11:36:10.254Z,98560.46
2022-08-10T11:39:12.976Z,98561.72
2022-08-10T11:42:09.501Z,98551.16
2022-08-10T11:45:00.202Z,98549.77
2022-08-10T11:47:43.534Z,98548.13
2022-08-10T11:50:24.134Z,98550.90
2022-08-10T11:53:08.494Z,98556.64
2022-08-10T11:55:42.226Z,98560.88
2022-08-10T11:58:33.379Z,98558.02
2022-08-10T12:01:09.848Z,98560.55
2022-08-10T12:03:46.454Z,98550.73
2022-08-10T12:06:52.010Z,98546.90
2022-08-10T12:10:11.731Z,98543.58
2022-08-10T12:12:13.924Z,98543.46
2022-08-10T12:14:52.435Z,98547.90
2022-08-10T12:17:30.985Z,98552.09
2022-08-10T12:20:09.685Z,98551.23
2022-08-10T12:22:56.004Z,98548.27
2022-08-10T12:25:56.015Z,98545.14
2022-08-10T12:28:50.066Z,98539.14
2022-08-10T12:31:31.835Z,98529.98
2022-08-10T12:34:20.755Z,98523.61
2022-08-10T12:37:02.704Z,98524.05
2022-08-10T12:39:39.729Z,98523.05
2022-08-10T12:42:37.138Z,98518.30
2022-08-10T12:45:22.335Z,98511.55
2022-08-10T12:48:10.926Z,98509.02
2022-08-10T12:50:48.864Z,98506.06
2022-08-10T12:53:34.935Z,98504.02
2022-08-10T12:56:10.083Z,98511.52
2022-08-10T12:58:58.014Z,98514.81
2022-08-10T13:02:08.670Z,98510.95
2022-08-10T13:04:35.256Z,98506.73
2022-08-10T13:07:09.425Z,98497.13
2022-08-10T13:09:56.318Z,98492.00
2022-08-10T13:12:44.786Z,98495.98
2022-08-10T13:15:28.147Z,98485.48
2022-08-10T13:18:19.759Z,98485.48
2022-08-10T13:20:57.636Z,98485.89
2022-08-10T13:23:33.691Z,98477.87
2022-08-10T13:28:01.190Z,98474.39
2022-08-10T13:30:35.482Z,98476.38
2022-08-10T13:33:12.695Z,98475.14
2022-08-10T13:35:49.194Z,98477.66
2022-08-10T13:38:32.494Z,98478.36
2022-08-10T13:41:06.474Z,98481.48
2022-08-10T13:43:50.132Z,98480.27
2022-08-10T13:46:25.305Z,98480.80
2022-08-10T13:49:00.124Z,98479.29
2022-08-10T13:51:56.622Z,98474.44
2022-08-10T13:54:38.575Z,98468.60
2022-08-10T13:57:13.675Z,98466.29
2022-08-10T14:00:34.869Z,98466.88
2022-08-10T14:02:48.366Z,98463.06
2022-08-10T14:05:28.625Z,98460.46
2022-08-10T14:08:02.318Z,98452.66
2022-08-10T14:11:08.918Z,98447.49
2022-08-10T14:13:37.876Z,98452.55
2022-08-10T14:16:12.935Z,98442.21
2022-08-10T14:18:49.474Z,98439.51
2022-08-10T14:21:22.724Z,98439.71
2022-08-10T14:23:56.334Z,98437.54
2022-08-10T14:26:32.787Z,98433.73
2022-08-10T14:29:18.861Z,98436.50
2022-08-10T14:32:01.965Z,98433.61
2022-08-10T14:36:15.407Z,98431.83
2022-08-10T14:37:39.481Z,98435.68
2022-08-10T14:40:16.642Z,98438.90
2022-08-10T14:42:54.815Z,98446.40
2022-08-10T14:45:30.725Z,98438.71
2022-08-10T14:48:11.801Z,98441.61
2022-08-10T14:50:55.489Z,98442.23
2022-08-10T14:53:31.175Z,98437.88
2022-08-10T14:56:11.453Z,98441.77
2022-08-10T14:59:06.224Z,98443.67
2022-08-10T15:01:59.880Z,98437.77
2022-08-10T15:04:38.155Z,98435.73
2022-08-10T15:07:21.455Z,98437.27
2022-08-10T15:10:02.136Z,98433.23
2022-08-10T15:12:40.027Z,98433.90
2022-08-10T15:15:16.170Z,98432.36
2022-08-10T15:17:57.372Z,98429.42
2022-08-10T15:20:31.748Z,98432.13
2022-08-10T15:23:31.236Z,98433.15
2022-08-10T15:26:10.839Z,98430.61
2022-08-10T15:29:24.198Z,98426.93
2022-08-10T15:31:55.554Z,98429.55
2022-08-10T15:34:47.307Z,98428.30
2022-08-10T15:37:40.670Z,98425.99
2022-08-10T15:40:25.691Z,98430.52
2022-08-10T15:43:24.658Z,98428.44
2022-08-10T15:46:15.665Z,98423.69
2022-08-10T15:48:54.904Z,98425.09
2022-08-10T15:51:53.555Z,98426.11
2022-08-10T15:54:33.461Z,98433.08
2022-08-10T15:57:13.216Z,98431.72
2022-08-10T15:59:55.025Z,98430.52
2022-08-10T16:02:32.068Z,98431.08
2022-08-10T16:05:09.875Z,98429.51
2022-08-10T16:07:49.437Z,98432.78
2022-08-10T16:10:29.106Z,98431.05
2022-08-10T16:13:50.401Z,98430.33
2022-08-10T16:16:02.137Z,98430.14
2022-08-10T16:18:38.204Z,98430.14
2022-08-10T16:21:18.555Z,98431.01
2022-08-10T16:24:00.571Z,98430.59
2022-08-10T16:26:53.291Z,98435.56
2022-08-10T16:29:29.424Z,98431.42
2022-08-10T16:32:04.774Z,98433.39
2022-08-10T16:34:44.491Z,98434.52
2022-08-10T16:37:18.875Z,98435.09
2022-08-10T16:40:01.010Z,98433.89
2022-08-10T16:42:35.555Z,98433.84
2022-08-10T16:45:12.545Z,98438.92
2022-08-10T16:47:51.085Z,98439.33
2022-08-10T16:50:30.915Z,98437.80
2022-08-10T16:53:07.294Z,98440.70
2022-08-10T16:55:48.006Z,98441.67
2022-08-10T16:58:28.436Z,98437.54
2022-08-10T17:01:07.977Z,98442.95
2022-08-10T17:04:06.658Z,98442.90
2022-08-10T17:06:40.884Z,98441.60
2022-08-10T17:09:20.206Z,98444.08
2022-08-10T17:11:56.519Z,98445.80
2022-08-10T17:14:30.775Z,98443.52
2022-08-10T17:17:07.883Z,98441.49
2022-08-10T17:19:42.846Z,98444.25
2022-08-10T17:22:19.244Z,98445.62
2022-08-10T17:24:57.092Z,98447.11
2022-08-10T17:28:04.275Z,98451.06
2022-08-10T17:30:35.259Z,98448.48
2022-08-10T17:33:23.564Z,98451.45
2022-08-10T17:36:02.769Z,98450.75
2022-08-10T17:38:38.615Z,98452.86
2022-08-10T17:41:15.514Z,98448.20
2022-08-10T17:44:02.790Z,98448.52
2022-08-10T17:46:39.557Z,98450.14
2022-08-10T17:49:18.344Z,98452.33
2022-08-10T17:51:58.426Z,98453.38
2022-08-10T17:54:34.734Z,98455.20
2022-08-10T17:57:11.892Z,98455.42
2022-08-10T17:59:47.555Z,98458.05
2022-08-10T18:02:25.978Z,98458.57
2022-08-10T18:05:03.710Z,98460.20
2022-08-10T18:07:43.675Z,98458.93
2022-08-10T18:10:23.706Z,98461.54
2022-08-10T18:13:01.578Z,98459.88
2022-08-10T18:15:40.114Z,98461.92
2022-08-10T18:18:20.815Z,98461.77
2022-08-10T18:21:03.997Z,98463.42
2022-08-10T18:23:40.464Z,98465.67
2022-08-10T18:26:17.419Z,98465.86
2022-08-10T18:28:58.085Z,98468.15
2022-08-10T18:31:35.167Z,98470.46
2022-08-10T18:34:20.153Z,98472.14
2022-08-10T18:36:55.968Z,98479.38
2022-08-10T18:39:35.051Z,98480.70
2022-08-10T18:42:15.975Z,98482.02
2022-08-10T18:45:00.905Z,98482.35
2022-08-10T18:47:59.088Z,98483.96
2022-08-10T18:50:38.585Z,98489.86
2022-08-10T18:53:20.016Z,98490.17
2022-08-10T18:56:09.520Z,98494.89
2022-08-10T18:59:02.925Z,98493.27
2022-08-10T19:01:56.875Z,98495.36
2022-08-10T19:04:32.923Z,98495.20
2022-08-10T19:07:37.092Z,98490.86
2022-08-10T19:10:18.534Z,98493.80
2022-08-10T19:13:00.941Z,98495.08
2022-08-10T19:15:42.893Z,98496.23
2022-08-10T19:18:31.959Z,98498.29
2022-08-10T19:21:15.058Z,98497.75
2022-08-10T19:24:04.775Z,98500.45
2022-08-10T19:26:46.804Z,98500.06
2022-08-10T19:30:08.222Z,98499.71
2022-08-10T19:32:33.749Z,98497.84
2022-08-10T19:35:11.103Z,98497.27
2022-08-10T19:38:00.427Z,98499.34
2022-08-10T19:40:44.154Z,98499.52
2022-08-10T19:44:00.918Z,98498.23
2022-08-10T19:46:28.428Z,98497.98
2022-08-10T19:49:03.073Z,98495.86
2022-08-10T19:51:48.593Z,98495.32
2022-08-10T19:54:35.658Z,98490.45
2022-08-10T19:57:13.135Z,98495.36
2022-08-10T20:00:15.978Z,98494.46
2022-08-10T20:02:57.625Z,98494.30
2022-08-10T20:05:35.806Z,98495.95
2022-08-10T20:08:19.521Z,98497.52
2022-08-10T20:11:03.555Z,98492.88
2022-08-10T20:13:49.206Z,98493.91
2022-08-10T20:16:24.755Z,98495.60
2022-08-10T20:19:05.808Z,98493.90
2022-08-10T20:21:47.558Z,98489.77
2022-08-10T20:24:30.536Z,98489.57
2022-08-10T20:27:56.661Z,98489.81
2022-08-10T20:30:05.396Z,98489.25
2022-08-10T20:32:45.335Z,98489.36
2022-08-10T20:35:26.420Z,98488.73
2022-08-10T20:38:10.738Z,98487.27
2022-08-10T20:40:48.314Z,98487.55
2022-08-10T20:43:25.346Z,98489.38
2022-08-10T20:46:09.189Z,98488.64
2022-08-10T20:48:50.877Z,98488.42
2022-08-10T20:51:58.559Z,98491.45
2022-08-10T20:54:29.546Z,98492.64
2022-08-10T20:57:54.124Z,98489.29
2022-08-10T21:00:43.687Z,98490.40
2022-08-10T21:03:45.705Z,98486.81
2022-08-10T21:06:47.435Z,98487.09
2022-08-10T21:09:35.501Z,98488.81
2022-08-10T21:12:40.936Z,98487.14
2022-08-10T21:15:24.367Z,98486.67
2022-08-10T21:18:05.867Z,98488.18
2022-08-10T21:20:54.349Z,98484.39
2022-08-10T21:23:31.338Z,98488.44
2022-08-10T21:26:15.998Z,98485.45
2022-08-10T21:29:21.368Z,98483.70
2022-08-10T21:32:16.516Z,98480.95
2022-08-10T21:35:02.948Z,98476.76
2022-08-10T21:37:57.228Z,98478.84
2022-08-10T21:41:16.961Z,98482.41
2022-08-10T21:44:08.771Z,98481.16
2022-08-10T21:47:02.546Z,98479.88
2022-08-10T21:50:07.604Z,98479.02
2022-08-10T21:53:04.051Z,98477.02
2022-08-10T21:56:08.313Z,98475.17
2022-08-10T21:59:10.626Z,98473.20
2022-08-10T22:02:08.836Z,98473.48
2022-08-10T22:04:59.726Z,98476.52
2022-08-10T22:07:52.066Z,98475.23
2022-08-10T22:10:48.740Z,98474.07
2022-08-10T22:13:40.696Z,98468.45
2022-08-10T22:16:44.216Z,98470.84
2022-08-10T22:19:37.176Z,98469.59
2022-08-10T22:22:32.346Z,98468.52
2022-08-10T22:25:39.174Z,98461.56
2022-08-10T22:28:37.162Z,98460.15
2022-08-10T22:31:47.146Z,98454.17
2022-08-10T22:34:58.436Z,98455.86
2022-08-10T22:38:04.096Z,98455.00
2022-08-10T22:41:02.376Z,98451.67
2022-08-10T22:43:55.526Z,98448.20
2022-08-10T22:46:49.885Z,98448.04
2022-08-10T22:49:26.105Z,98442.54
2022-08-10T22:52:04.915Z,98438.63
2022-08-10T22:54:59.066Z,98437.66
2022-08-10T22:57:50.083Z,98437.71
2022-08-10T23:00:30.735Z,98434.88
2022-08-10T23:03:13.397Z,98433.30
2022-08-10T23:05:54.369Z,98432.20
2022-08-10T23:08:33.345Z,98433.76
2022-08-10T23:11:12.176Z,98432.45
2022-08-10T23:13:48.284Z,98436.00
2022-08-10T23:16:43.367Z,98435.41
2022-08-10T23:19:19.485Z,98437.77
2022-08-10T23:22:03.069Z,98433.20
2022-08-10T23:24:41.566Z,98430.95
2022-08-10T23:27:39.058Z,98429.80
2022-08-10T23:30:18.115Z,98429.36
2022-08-10T23:33:00.017Z,98426.29
2022-08-10T23:36:05.681Z,98425.82
2022-08-10T23:38:41.795Z,98426.11
2022-08-10T23:41:15.255Z,98422.89
2022-08-10T23:44:03.749Z,98425.50
2022-08-10T23:46:43.415Z,98429.84
2022-08-10T23:49:17.003Z,98426.23
2022-08-10T23:51:55.191Z,98424.48
2022-08-10T23:54:31.556Z,98425.11
2022-08-10T23:57:05.236Z,98426.10
2022-08-10T23:59:39.316Z,98422.02
